createdAt,value
2022-11-03T00:01:37.814Z,4.65
2022-11-03T00:04:07.539Z,4.30
2022-11-03T00:06:36.065Z,3.95
2022-11-03T00:09:06.745Z,4.25
2022-11-03T00:11:37.279Z,3.40
2022-11-03T00:14:06.497Z,3.45
2022-11-03T00:16:34.942Z,4.18
2022-11-03T00:19:03.385Z,4.38
2022-11-03T00:21:31.767Z,3.80
2022-11-03T00:24:01.336Z,3.92
2022-11-03T00:26:30.625Z,4.35
2022-11-03T00:29:02.205Z,3.13
2022-11-03T00:31:32.056Z,4.68
2022-11-03T00:34:01.112Z,3.78
2022-11-03T00:36:30.662Z,4.60
2022-11-03T00:38:59.073Z,3.55
2022-11-03T00:41:28.145Z,3.63
2022-11-03T00:43:57.247Z,3.58
2022-11-03T00:46:26.914Z,4.32
2022-11-03T00:48:54.981Z,3.65
2022-11-03T00:51:25.069Z,3.33
2022-11-03T00:53:54.748Z,3.15
2022-11-03T00:56:24.326Z,3.35
2022-11-03T00:58:53.332Z,3.40
2022-11-03T01:01:23.145Z,4.10
2022-11-03T01:04:11.769Z,3.42
2022-11-03T01:06:51.879Z,3.50
2022-11-03T01:09:21.090Z,3.72
2022-11-03T01:11:56.977Z,4.13
2022-11-03T01:14:26.790Z,4.43
2022-11-03T01:16:55.022Z,2.90
2022-11-03T01:19:25.357Z,3.22
2022-11-03T01:21:53.967Z,3.72
2022-11-03T01:24:22.707Z,2.45
2022-11-03T01:26:50.777Z,3.58
2022-11-03T01:29:19.311Z,3.33
2022-11-03T01:31:47.692Z,3.10
2022-11-03T01:34:17.611Z,3.22
2022-11-03T01:36:47.537Z,3.78
2022-11-03T01:39:17.608Z,3.03
2022-11-03T01:41:47.278Z,3.45
2022-11-03T01:44:37.723Z,3.25
2022-11-03T01:47:17.501Z,3.28
2022-11-03T01:49:50.159Z,4.03
2022-11-03T01:52:25.275Z,4.00
2022-11-03T01:54:58.426Z,3.72
2022-11-03T01:57:31.730Z,3.47
2022-11-03T02:00:02.337Z,3.53
2022-11-03T02:02:41.391Z,3.10
2022-11-03T02:05:11.865Z,2.90
2022-11-03T02:07:48.023Z,3.13
2022-11-03T02:10:16.340Z,3.08
2022-11-03T02:12:45.254Z,3.00
2022-11-03T02:15:15.788Z,4.95
2022-11-03T02:17:45.628Z,4.55
2022-11-03T02:20:17.288Z,4.65
2022-11-03T02:23:11.876Z,5.10
2022-11-03T02:25:46.782Z,5.10
2022-11-03T02:28:18.765Z,6.05
2022-11-03T02:30:58.704Z,5.68
2022-11-03T02:33:41.541Z,7.40
2022-11-03T02:36:17.003Z,6.07
2022-11-03T02:38:50.191Z,6.65
2022-11-03T02:41:20.685Z,6.13
2022-11-03T02:43:49.706Z,6.30
2022-11-03T02:46:19.148Z,7.25
2022-11-03T02:48:48.178Z,6.07
2022-11-03T02:51:16.209Z,5.40
2022-11-03T02:53:49.590Z,6.25
2022-11-03T02:56:23.054Z,7.50
2022-11-03T02:58:57.858Z,6.45
2022-11-03T03:01:34.614Z,5.43
2022-11-03T03:04:07.218Z,6.38
2022-11-03T03:06:40.405Z,6.43
2022-11-03T03:09:13.027Z,7.82
2022-11-03T03:11:44.712Z,6.22
2022-11-03T03:14:16.369Z,5.55
2022-11-03T03:16:52.115Z,6.45
2022-11-03T03:19:26.929Z,5.85
2022-11-03T03:21:58.474Z,6.50
2022-11-03T03:24:33.204Z,7.15
2022-11-03T03:27:08.317Z,6.70
2022-11-03T03:29:40.746Z,7.75
2022-11-03T03:32:11.169Z,8.07
2022-11-03T03:34:42.938Z,8.65
2022-11-03T03:37:13.028Z,7.50
2022-11-03T03:39:45.715Z,7.10
2022-11-03T03:42:17.225Z,7.80
2022-11-03T03:44:47.415Z,8.68
2022-11-03T03:47:20.448Z,6.82
2022-11-03T03:49:48.522Z,7.47
2022-11-03T03:52:17.081Z,7.95
2022-11-03T03:54:45.089Z,7.93
2022-11-03T03:57:18.409Z,8.00
2022-11-03T03:59:47.080Z,6.72
2022-11-03T04:02:15.776Z,9.20
2022-11-03T04:04:43.898Z,7.38
2022-11-03T04:07:29.726Z,7.10
2022-11-03T04:09:58.120Z,6.45
2022-11-03T04:12:44.840Z,7.35
2022-11-03T04:15:43.013Z,8.25
2022-11-03T04:18:28.886Z,7.95
2022-11-03T04:21:14.840Z,7.03
2022-11-03T04:23:43.018Z,6.70
2022-11-03T04:26:14.014Z,7.70
2022-11-03T04:28:43.849Z,6.85
2022-11-03T04:31:13.588Z,6.63
2022-11-03T04:33:42.696Z,7.55
2022-11-03T04:36:16.398Z,7.22
2022-11-03T04:38:45.526Z,7.32
2022-11-03T04:41:18.049Z,8.18
2022-11-03T04:43:48.057Z,6.90
2022-11-03T04:46:18.304Z,6.88
2022-11-03T04:48:47.586Z,6.68
2022-11-03T04:51:18.704Z,6.93
2022-11-03T04:53:50.895Z,7.03
2022-11-03T04:56:22.117Z,7.38
2022-11-03T04:58:52.622Z,6.60
2022-11-03T05:01:24.578Z,6.28
2022-11-03T05:03:55.226Z,6.47
2022-11-03T05:06:25.412Z,7.10
2022-11-03T05:08:57.557Z,7.93
2022-11-03T05:11:30.960Z,8.55
2022-11-03T05:14:02.672Z,7.90
2022-11-03T05:16:32.565Z,7.28
2022-11-03T05:19:01.141Z,11.45
2022-11-03T05:21:29.462Z,7.13
2022-11-03T05:24:01.909Z,7.55
2022-11-03T05:26:33.674Z,8.32
2022-11-03T05:29:05.531Z,8.52
2022-11-03T05:31:36.594Z,6.60
2022-11-03T05:34:23.117Z,7.75
2022-11-03T05:36:51.068Z,6.70
2022-11-03T05:39:30.446Z,7.63
2022-11-03T05:42:00.324Z,7.88
2022-11-03T05:44:36.817Z,7.63
2022-11-03T05:47:13.444Z,7.03
2022-11-03T05:49:41.485Z,9.43
2022-11-03T05:52:15.067Z,17.58
2022-11-03T05:54:43.168Z,12.93
2022-11-03T05:57:12.571Z,11.50
2022-11-03T05:59:42.120Z,9.05
2022-11-03T06:02:27.809Z,8.20
2022-11-03T06:04:56.201Z,9.35
2022-11-03T06:07:27.155Z,10.10
2022-11-03T06:09:55.199Z,9.15
2022-11-03T06:12:24.933Z,9.50
2022-11-03T06:14:54.571Z,8.98
2022-11-03T06:17:25.205Z,10.85
2022-11-03T06:19:55.253Z,9.25
2022-11-03T06:22:25.538Z,11.65
2022-11-03T06:24:57.289Z,10.90
2022-11-03T06:27:27.682Z,12.13
2022-11-03T06:30:01.548Z,11.80
2022-11-03T06:32:30.638Z,12.95
2022-11-03T06:35:00.141Z,12.60
2022-11-03T06:37:33.166Z,10.73
2022-11-03T06:40:03.612Z,12.95
2022-11-03T06:42:34.182Z,13.40
2022-11-03T06:45:14.187Z,15.30
2022-11-03T06:47:42.512Z,16.55
2022-11-03T06:50:23.210Z,15.25
2022-11-03T06:52:51.740Z,14.52
2022-11-03T06:55:25.345Z,15.23
2022-11-03T06:57:58.765Z,14.30
2022-11-03T07:00:35.462Z,15.00
2022-11-03T07:03:10.406Z,13.52
2022-11-03T07:05:40.233Z,13.13
2022-11-03T07:08:19.895Z,14.30
2022-11-03T07:10:48.914Z,13.43
2022-11-03T07:13:21.061Z,10.00
2022-11-03T07:15:51.285Z,10.35
2022-11-03T07:18:24.004Z,8.80
2022-11-03T07:20:53.334Z,9.30
2022-11-03T07:23:25.584Z,10.25
2022-11-03T07:25:55.420Z,7.78
2022-11-03T07:28:27.910Z,7.70
2022-11-03T07:30:57.735Z,7.57
2022-11-03T07:33:28.823Z,7.13
2022-11-03T07:36:14.807Z,7.43
2022-11-03T07:38:44.556Z,6.00
2022-11-03T07:41:19.460Z,6.55
2022-11-03T07:43:52.595Z,5.80
2022-11-03T07:46:24.127Z,6.50
2022-11-03T07:48:55.343Z,6.60
2022-11-03T07:51:25.790Z,6.30
2022-11-03T07:53:56.512Z,4.80
2022-11-03T07:56:27.045Z,5.68
2022-11-03T07:58:59.925Z,4.75
2022-11-03T08:01:32.104Z,6.03
2022-11-03T08:04:04.986Z,4.82
2022-11-03T08:06:33.704Z,5.68
2022-11-03T08:09:01.934Z,5.20
2022-11-03T08:11:30.170Z,5.05
2022-11-03T08:13:58.570Z,4.28
2022-11-03T08:16:26.614Z,5.20
2022-11-03T08:18:55.916Z,4.18
2022-11-03T08:21:24.520Z,4.93
2022-11-03T08:23:52.482Z,4.55
2022-11-03T08:26:20.630Z,4.40
2022-11-03T08:28:48.891Z,3.88
2022-11-03T08:31:17.433Z,4.05
2022-11-03T08:33:46.104Z,3.97
2022-11-03T08:36:15.773Z,3.55
2022-11-03T08:38:43.958Z,3.40
2022-11-03T08:41:11.931Z,3.30
2022-11-03T08:43:39.909Z,4.70
2022-11-03T08:46:15.767Z,4.63
2022-11-03T08:48:46.250Z,3.45
2022-11-03T08:51:16.869Z,3.35
2022-11-03T08:53:46.309Z,3.08
2022-11-03T08:56:16.954Z,3.97
2022-11-03T08:58:47.426Z,3.47
2022-11-03T09:01:15.931Z,3.65
2022-11-03T09:03:44.072Z,3.05
2022-11-03T09:06:12.087Z,3.00
2022-11-03T09:11:29.907Z,4.10
2022-11-03T09:13:58.159Z,3.20
2022-11-03T09:16:26.636Z,3.05
2022-11-03T09:18:54.588Z,3.03
2022-11-03T09:21:22.677Z,3.22
2022-11-03T09:23:52.116Z,3.45
2022-11-03T09:26:20.272Z,3.30
2022-11-03T09:28:49.474Z,2.72
2022-11-03T09:31:17.641Z,3.33
2022-11-03T09:33:45.830Z,2.80
2022-11-03T09:36:14.292Z,3.00
2022-11-03T09:38:42.224Z,3.78
2022-11-03T09:41:26.556Z,2.63
2022-11-03T09:43:59.232Z,2.67
2022-11-03T09:46:29.698Z,2.35
2022-11-03T09:48:58.289Z,2.15
2022-11-03T09:51:28.125Z,2.90
2022-11-03T09:53:58.691Z,4.28
2022-11-03T09:56:28.099Z,2.85
2022-11-03T09:58:56.369Z,3.15
2022-11-03T10:01:25.015Z,3.15
2022-11-03T10:03:53.540Z,3.00
2022-11-03T10:06:21.615Z,3.10
2022-11-03T10:08:50.370Z,2.70
2022-11-03T10:11:19.116Z,2.55
2022-11-03T10:13:53.189Z,3.08
2022-11-03T10:16:24.548Z,3.05
2022-11-03T10:18:53.562Z,2.60
2022-11-03T10:21:26.857Z,2.70
2022-11-03T10:23:55.167Z,2.28
2022-11-03T10:26:23.365Z,2.45
2022-11-03T10:29:04.432Z,2.50
2022-11-03T10:31:35.018Z,2.10
2022-11-03T10:34:03.942Z,2.40
2022-11-03T10:36:33.230Z,3.13
2022-11-03T10:39:21.333Z,2.53
2022-11-03T10:41:57.682Z,2.47
2022-11-03T10:44:29.931Z,2.80
2022-11-03T10:46:59.523Z,2.30
2022-11-03T10:49:29.347Z,2.30
2022-11-03T10:52:09.341Z,2.92
2022-11-03T10:54:38.128Z,2.95
2022-11-03T10:57:07.096Z,3.83
2022-11-03T10:59:38.847Z,3.15
2022-11-03T11:02:17.159Z,3.28
2022-11-03T11:04:47.738Z,2.85
2022-11-03T11:07:29.566Z,2.47
2022-11-03T11:09:57.588Z,4.57
2022-11-03T11:12:26.175Z,2.40
2022-11-03T11:14:57.915Z,2.88
2022-11-03T11:17:43.651Z,3.00
2022-11-03T11:20:37.182Z,2.75
2022-11-03T11:23:47.853Z,2.65
2022-11-03T11:26:19.129Z,2.60
2022-11-03T11:29:08.230Z,2.97
2022-11-03T11:31:38.112Z,2.55
2022-11-03T11:34:39.958Z,2.58
2022-11-03T11:37:35.120Z,2.38
2022-11-03T11:40:04.728Z,2.47
2022-11-03T11:42:35.022Z,2.80
2022-11-03T11:45:06.729Z,2.90
2022-11-03T11:47:51.764Z,3.15
2022-11-03T11:50:46.329Z,3.05
2022-11-03T11:53:21.483Z,2.90
2022-11-03T11:55:53.805Z,2.70
2022-11-03T11:58:26.589Z,2.75
2022-11-03T12:00:57.624Z,2.45
2022-11-03T12:03:37.462Z,3.40
2022-11-03T12:06:06.155Z,3.15
2022-11-03T12:08:35.446Z,3.92
2022-11-03T12:11:05.689Z,3.25
2022-11-03T12:13:52.642Z,2.97
2022-11-03T12:16:34.331Z,3.55
2022-11-03T12:19:40.313Z,3.17
2022-11-03T12:22:10.409Z,3.20
2022-11-03T12:24:48.274Z,3.20
2022-11-03T12:27:39.044Z,3.00
2022-11-03T12:30:13.800Z,3.70
2022-11-03T12:32:41.964Z,3.10
2022-11-03T12:35:38.206Z,3.13
2022-11-03T12:38:06.260Z,2.95
2022-11-03T12:40:34.443Z,3.15
2022-11-03T12:43:02.507Z,3.67
2022-11-03T12:45:30.523Z,3.05
2022-11-03T12:47:58.510Z,3.13
2022-11-03T12:50:26.431Z,3.25
2022-11-03T12:52:56.196Z,4.15
2022-11-03T12:55:24.303Z,3.40
2022-11-03T12:57:52.537Z,3.83
2022-11-03T13:00:20.940Z,2.83
2022-11-03T13:02:48.995Z,3.33
2022-11-03T13:05:17.336Z,3.53
2022-11-03T13:07:45.285Z,3.60
2022-11-03T13:10:14.803Z,3.20
2022-11-03T13:12:44.546Z,4.10
2022-11-03T13:15:15.939Z,3.28
2022-11-03T13:18:13.040Z,4.65
2022-11-03T13:20:32.420Z,3.72
2022-11-03T13:23:00.417Z,4.15
2022-11-03T13:25:30.034Z,4.03
2022-11-03T13:27:58.456Z,4.75
2022-11-03T13:30:28.126Z,4.05
2022-11-03T13:32:56.041Z,3.97
2022-11-03T13:35:24.274Z,4.45
2022-11-03T13:37:52.455Z,3.85
2022-11-03T13:40:55.586Z,3.60
2022-11-03T13:43:10.604Z,3.25
2022-11-03T13:45:39.236Z,3.50
2022-11-03T13:49:05.341Z,3.30
2022-11-03T13:50:56.932Z,3.13
2022-11-03T13:56:20.790Z,4.43
2022-11-03T14:05:46.759Z,3.60
2022-11-03T14:08:15.314Z,4.13
2022-11-03T14:10:43.744Z,3.42
2022-11-03T14:13:12.443Z,3.65
2022-11-03T14:15:40.957Z,4.40
2022-11-03T14:18:10.773Z,4.03
2022-11-03T14:20:39.560Z,5.03
2022-11-03T14:23:08.687Z,4.40
2022-11-03T14:25:37.343Z,5.15
2022-11-03T14:28:05.769Z,4.70
2022-11-03T14:30:34.268Z,4.93
2022-11-03T14:33:02.329Z,5.47
2022-11-03T14:35:31.784Z,5.57
2022-11-03T14:37:59.892Z,4.43
2022-11-03T14:40:46.047Z,5.25
2022-11-03T14:43:14.635Z,4.80
2022-11-03T14:45:42.970Z,5.95
2022-11-03T14:48:11.216Z,5.47
2022-11-03T14:50:40.804Z,5.50
2022-11-03T14:53:08.917Z,4.18
2022-11-03T14:55:37.476Z,4.32
2022-11-03T14:58:06.213Z,5.30
2022-11-03T15:00:34.417Z,6.75
2022-11-03T15:03:02.592Z,7.40
2022-11-03T15:05:45.640Z,5.88
2022-11-03T15:08:16.953Z,5.70
2022-11-03T15:10:46.123Z,6.00
2022-11-03T15:13:14.320Z,5.88
2022-11-03T15:15:42.753Z,6.10
2022-11-03T15:18:11.204Z,6.22
2022-11-03T15:20:39.747Z,6.03
2022-11-03T15:25:58.698Z,5.05
2022-11-03T15:28:26.813Z,4.70
2022-11-03T15:30:55.080Z,5.80
2022-11-03T15:33:23.147Z,5.20
2022-11-03T15:35:51.522Z,5.05
2022-11-03T15:38:19.849Z,4.68
2022-11-03T15:40:48.150Z,5.93
2022-11-03T15:43:18.433Z,6.90
2022-11-03T15:45:46.531Z,6.05
2022-11-03T15:48:40.252Z,6.50
2022-11-03T15:51:08.567Z,6.15
2022-11-03T15:53:36.680Z,5.88
2022-11-03T15:56:05.214Z,6.07
2022-11-03T15:58:34.901Z,4.78
2022-11-03T16:01:03.818Z,4.78
2022-11-03T16:03:32.948Z,5.75
2022-11-03T16:06:01.433Z,4.82
2022-11-03T16:08:29.437Z,5.13
2022-11-03T16:10:58.371Z,4.22
2022-11-03T16:13:26.762Z,5.97
2022-11-03T16:15:56.498Z,4.82
2022-11-03T16:18:24.959Z,5.60
2022-11-03T16:20:53.376Z,5.20
2022-11-03T16:23:21.630Z,5.20
2022-11-03T16:25:50.569Z,4.82
2022-11-03T16:28:19.783Z,5.63
2022-11-03T16:30:53.830Z,7.32
2022-11-03T16:33:24.660Z,5.95
2022-11-03T16:35:52.796Z,6.15
2022-11-03T16:38:20.983Z,6.25
2022-11-03T16:40:49.032Z,6.55
2022-11-03T16:43:17.187Z,6.40
2022-11-03T16:45:45.331Z,5.95
2022-11-03T16:48:13.555Z,5.65
2022-11-03T16:50:44.761Z,6.47
2022-11-03T16:53:13.357Z,6.80
2022-11-03T16:55:41.567Z,6.78
2022-11-03T16:58:10.042Z,6.90
2022-11-03T17:00:38.077Z,7.00
2022-11-03T17:03:06.564Z,5.88
2022-11-03T17:05:35.851Z,8.13
2022-11-03T17:08:05.781Z,7.28
2022-11-03T17:10:33.805Z,7.47
2022-11-03T17:13:04.970Z,7.68
2022-11-03T17:15:35.667Z,7.07
2022-11-03T17:18:03.698Z,7.47
2022-11-03T17:20:31.783Z,7.43
2022-11-03T17:22:59.904Z,6.15
2022-11-03T17:25:30.107Z,7.80
2022-11-03T17:28:00.732Z,7.65
2022-11-03T17:30:31.660Z,7.88
2022-11-03T17:33:02.791Z,8.88
2022-11-03T17:35:39.271Z,7.88
2022-11-03T17:38:13.923Z,8.10
2022-11-03T17:40:45.355Z,6.88
2022-11-03T17:43:23.932Z,7.88
2022-11-03T17:45:52.453Z,9.05
2022-11-03T17:48:25.046Z,7.75
2022-11-03T17:50:56.427Z,8.48
2022-11-03T17:53:26.970Z,8.73
2022-11-03T17:56:27.746Z,7.47
2022-11-03T17:58:47.471Z,8.35
2022-11-03T18:01:21.419Z,8.68
2022-11-03T18:03:49.793Z,9.88
2022-11-03T18:06:20.020Z,7.82
2022-11-03T18:08:49.266Z,8.50
2022-11-03T18:11:44.591Z,8.93
2022-11-03T18:14:12.937Z,8.70
2022-11-03T18:16:41.898Z,7.70
2022-11-03T18:19:12.933Z,8.93
2022-11-03T18:21:41.255Z,8.40
2022-11-03T18:24:13.009Z,7.25
2022-11-03T18:26:43.438Z,7.25
2022-11-03T18:29:12.021Z,8.50
2022-11-03T18:31:42.882Z,10.05
2022-11-03T18:34:16.171Z,9.15
2022-11-03T18:36:44.805Z,7.63
2022-11-03T18:39:18.240Z,9.02
2022-11-03T18:41:48.039Z,9.00
2022-11-03T18:44:19.631Z,8.52
2022-11-03T18:46:48.454Z,8.45
2022-11-03T18:49:20.618Z,8.45
2022-11-03T18:51:50.444Z,8.85
2022-11-03T18:54:21.753Z,7.85
2022-11-03T18:56:54.064Z,8.10
2022-11-03T18:59:27.763Z,7.75
2022-11-03T19:01:56.525Z,7.10
2022-11-03T19:04:25.218Z,7.50
2022-11-03T19:06:53.829Z,6.35
2022-11-03T19:09:26.278Z,7.53
2022-11-03T19:11:58.396Z,7.55
2022-11-03T19:14:29.802Z,7.95
2022-11-03T19:17:28.771Z,6.70
2022-11-03T19:19:47.492Z,6.65
2022-11-03T19:22:17.558Z,6.60
2022-11-03T19:24:46.335Z,6.85
2022-11-03T19:27:19.731Z,6.35
2022-11-03T19:29:49.815Z,7.63
2022-11-03T19:32:23.646Z,7.45
2022-11-03T19:34:58.165Z,7.28
2022-11-03T19:37:31.017Z,7.40
2022-11-03T19:40:02.469Z,7.88
2022-11-03T19:42:33.179Z,6.93
2022-11-03T19:45:02.746Z,8.18
2022-11-03T19:47:34.884Z,7.82
2022-11-03T19:50:07.712Z,7.32
2022-11-03T19:52:36.762Z,7.35
2022-11-03T19:55:08.533Z,7.68
2022-11-03T19:57:38.606Z,7.70
2022-11-03T20:00:11.156Z,8.93
2022-11-03T20:02:39.680Z,8.15
2022-11-03T20:05:08.411Z,8.15
2022-11-03T20:07:37.335Z,8.25
2022-11-03T20:10:29.320Z,8.07
2022-11-03T20:13:02.783Z,7.72
2022-11-03T20:15:31.249Z,7.43
2022-11-03T20:17:59.907Z,8.00
2022-11-03T20:20:31.918Z,8.40
2022-11-03T20:23:01.342Z,8.38
2022-11-03T20:25:33.209Z,8.90
2022-11-03T20:28:15.244Z,8.63
2022-11-03T20:30:44.757Z,8.40
2022-11-03T20:33:16.116Z,8.40
2022-11-03T20:35:46.291Z,9.68
2022-11-03T20:38:17.177Z,8.85
2022-11-03T20:40:45.595Z,7.03
2022-11-03T20:43:23.632Z,8.90
2022-11-03T20:45:51.957Z,8.77
2022-11-03T20:48:20.170Z,9.38
2022-11-03T20:50:48.567Z,9.32
2022-11-03T20:53:19.263Z,9.30
2022-11-03T20:55:47.661Z,9.45
2022-11-03T20:58:19.244Z,9.32
2022-11-03T21:00:49.385Z,9.00
2022-11-03T21:03:44.936Z,9.85
2022-11-03T21:06:08.627Z,10.00
2022-11-03T21:08:37.108Z,10.45
2022-11-03T21:11:28.386Z,10.45
2022-11-03T21:14:01.318Z,12.10
2022-11-03T21:16:48.687Z,9.70
2022-11-03T21:19:36.574Z,11.02
2022-11-03T21:22:30.892Z,11.00
2022-11-03T21:25:03.015Z,12.48
2022-11-03T21:27:31.252Z,11.18
2022-11-03T21:30:01.559Z,10.85
2022-11-03T21:32:29.788Z,11.73
2022-11-03T21:35:23.777Z,12.57
2022-11-03T21:37:51.943Z,12.45
2022-11-03T21:40:20.271Z,12.55
2022-11-03T21:43:06.271Z,12.68
2022-11-03T21:45:36.767Z,12.98
2022-11-03T21:48:23.448Z,13.02
2022-11-03T21:50:52.267Z,13.55
2022-11-03T21:53:20.415Z,13.75
2022-11-03T21:55:49.437Z,13.75
2022-11-03T21:58:17.662Z,14.35
2022-11-03T22:00:47.763Z,14.75
2022-11-03T22:03:16.341Z,14.57
2022-11-03T22:05:44.445Z,13.95
2022-11-03T22:08:12.612Z,14.30
2022-11-03T22:10:41.437Z,14.40
2022-11-03T22:13:11.370Z,14.68
2022-11-03T22:15:57.786Z,16.77
2022-11-03T22:18:27.649Z,15.25
2022-11-03T22:21:15.726Z,16.17
2022-11-03T22:24:01.737Z,14.65
2022-11-03T22:26:47.751Z,16.27
2022-11-03T22:29:33.607Z,14.60
2022-11-03T22:32:01.696Z,17.77
2022-11-03T22:35:17.535Z,15.48
2022-11-03T22:37:46.012Z,16.35
2022-11-03T22:40:31.560Z,19.00
2022-11-03T22:43:18.929Z,18.35
2022-11-03T22:45:54.629Z,16.85
2022-11-03T22:48:24.559Z,19.33
2022-11-03T22:51:06.171Z,17.33
2022-11-03T22:56:46.389Z,18.08
2022-11-03T22:59:14.605Z,20.27
2022-11-03T23:01:43.258Z,19.52
2022-11-03T23:04:11.541Z,20.60
2022-11-03T23:06:41.994Z,20.00
2022-11-03T23:09:11.948Z,20.08
2022-11-03T23:11:40.417Z,19.23
2022-11-03T23:14:10.595Z,20.25
2022-11-03T23:16:40.201Z,20.13
2022-11-03T23:19:28.521Z,20.65
2022-11-03T23:21:59.135Z,19.30
2022-11-03T23:24:45.623Z,20.60
2022-11-03T23:27:15.113Z,20.30
2022-11-03T23:29:43.173Z,20.13
2022-11-03T23:32:11.430Z,18.88
2022-11-03T23:35:04.791Z,20.15
2022-11-03T23:37:35.108Z,19.52
2022-11-03T23:40:03.638Z,19.08
2022-11-03T23:43:00.836Z,19.13
2022-11-03T23:45:46.616Z,19.65
2022-11-03T23:48:32.536Z,21.45
2022-11-03T23:51:00.886Z,23.52
2022-11-03T23:53:30.851Z,22.08
2022-11-03T23:56:19.036Z,21.08
2022-11-03T23:58:49.600Z,19.83
